createdAt,value
2023-02-20T00:04:35.189Z,1.60
2023-02-20T00:09:58.975Z,2.05
2023-02-20T00:15:23.419Z,1.38
2023-02-20T00:20:48.550Z,1.60
2023-02-20T00:26:13.498Z,1.58
2023-02-20T00:31:39.065Z,1.48
2023-02-20T00:37:04.445Z,1.52
2023-02-20T00:42:28.716Z,1.77
2023-02-20T00:47:52.424Z,2.53
2023-02-20T00:53:17.580Z,2.00
2023-02-20T00:58:41.510Z,2.00
2023-02-20T01:04:05.621Z,2.15
2023-02-20T01:09:30.805Z,2.40
2023-02-20T01:14:54.676Z,2.60
2023-02-20T01:20:18.573Z,2.95
2023-02-20T01:25:43.923Z,2.90
2023-02-20T01:31:09.118Z,2.72
2023-02-20T01:36:33.980Z,3.17
2023-02-20T01:42:02.193Z,2.85
2023-02-20T01:47:25.991Z,2.97
2023-02-20T01:52:52.113Z,2.70
2023-02-20T01:58:22.676Z,2.78
2023-02-20T02:03:50.590Z,3.53
2023-02-20T02:09:19.385Z,2.80
2023-02-20T02:14:46.806Z,3.40
2023-02-20T02:20:40.873Z,2.55
2023-02-20T02:26:16.864Z,2.88
2023-02-20T02:32:14.551Z,3.03
2023-02-20T02:37:46.512Z,2.95
2023-02-20T02:43:17.883Z,3.17
2023-02-20T02:48:44.237Z,2.88
2023-02-20T02:54:14.058Z,2.75
2023-02-20T02:59:37.803Z,3.17
2023-02-20T03:05:06.848Z,3.00
2023-02-20T03:10:32.548Z,3.05
2023-02-20T03:15:56.940Z,2.40
2023-02-20T03:21:23.652Z,3.30
2023-02-20T03:26:50.503Z,3.30
2023-02-20T03:32:34.612Z,3.25
2023-02-20T03:38:19.092Z,3.08
2023-02-20T03:43:48.653Z,3.47
2023-02-20T03:49:14.667Z,2.97
2023-02-20T03:54:42.058Z,3.40
2023-02-20T04:00:12.419Z,2.95
2023-02-20T04:05:41.998Z,3.30
2023-02-20T04:11:11.304Z,3.05
2023-02-20T04:16:41.624Z,3.35
2023-02-20T04:22:09.879Z,3.40
2023-02-20T04:27:34.039Z,3.15
2023-02-20T04:32:59.811Z,3.05
2023-02-20T04:38:23.864Z,2.88
2023-02-20T04:43:49.370Z,3.22
2023-02-20T04:49:14.970Z,3.13
2023-02-20T04:54:41.665Z,2.60
2023-02-20T05:00:10.446Z,3.28
2023-02-20T05:05:35.649Z,2.70
2023-02-20T05:10:59.465Z,3.08
2023-02-20T05:16:23.188Z,2.38
2023-02-20T05:22:05.931Z,2.72
2023-02-20T05:27:29.818Z,3.60
2023-02-20T05:32:53.638Z,2.40
2023-02-20T05:38:20.501Z,2.78
2023-02-20T05:43:44.332Z,2.70
2023-02-20T05:49:08.130Z,2.97
2023-02-20T05:54:33.212Z,1.85
2023-02-20T05:59:56.970Z,2.22
2023-02-20T06:05:20.958Z,1.98
2023-02-20T06:10:46.195Z,2.20
2023-02-20T06:16:11.607Z,2.30
2023-02-20T06:21:36.074Z,2.13
2023-02-20T06:27:01.393Z,2.60
2023-02-20T06:32:25.196Z,1.55
2023-02-20T06:37:49.223Z,1.60
2023-02-20T06:43:14.370Z,2.47
2023-02-20T06:48:48.004Z,2.22
2023-02-20T06:54:13.279Z,2.53
2023-02-20T06:59:41.570Z,2.00
2023-02-20T07:05:06.037Z,2.50
2023-02-20T07:10:29.815Z,2.47
2023-02-20T07:15:55.008Z,2.20
2023-02-20T07:21:18.903Z,2.90
2023-02-20T07:26:42.686Z,3.03
2023-02-20T07:32:09.060Z,2.05
2023-02-20T07:37:33.136Z,4.32
2023-02-20T07:42:57.461Z,1.90
2023-02-20T07:48:22.628Z,2.20
2023-02-20T07:53:50.086Z,2.28
2023-02-20T07:59:13.877Z,2.08
2023-02-20T08:04:39.056Z,2.25
2023-02-20T08:10:02.898Z,2.67
2023-02-20T08:15:26.714Z,2.60
2023-02-20T08:20:52.845Z,2.80
2023-02-20T08:26:16.675Z,2.90
2023-02-20T08:31:40.584Z,3.00
2023-02-20T08:37:05.816Z,4.18
2023-02-20T08:42:29.546Z,3.45
2023-02-20T08:47:59.424Z,3.97
2023-02-20T08:53:24.612Z,3.63
2023-02-20T08:58:48.844Z,3.15
2023-02-20T09:04:12.786Z,3.33
2023-02-20T09:09:37.912Z,4.28
2023-02-20T09:15:02.394Z,3.25
2023-02-20T09:20:26.133Z,3.65
2023-02-20T09:25:51.348Z,3.58
2023-02-20T09:31:15.165Z,3.38
2023-02-20T09:36:38.956Z,3.13
2023-02-20T09:42:16.264Z,3.20
2023-02-20T09:47:52.085Z,2.92
2023-02-20T09:53:22.462Z,3.95
2023-02-20T09:58:54.137Z,3.03
2023-02-20T10:04:21.699Z,3.25
2023-02-20T10:09:45.540Z,3.33
2023-02-20T10:15:21.073Z,2.92
2023-02-20T10:20:54.883Z,2.42
2023-02-20T10:26:21.960Z,3.03
2023-02-20T10:31:53.030Z,3.13
2023-02-20T10:37:20.068Z,2.83
2023-02-20T10:42:49.233Z,3.13
2023-02-20T10:48:15.719Z,2.72
2023-02-20T10:53:44.797Z,2.38
2023-02-20T10:59:11.957Z,3.05
2023-02-20T11:04:42.412Z,2.88
2023-02-20T11:10:07.177Z,2.80
2023-02-20T11:15:34.526Z,3.33
2023-02-20T11:21:00.203Z,3.03
2023-02-20T11:26:28.945Z,3.17
2023-02-20T11:31:52.786Z,3.00
2023-02-20T11:37:19.349Z,2.97
2023-02-20T11:42:43.167Z,3.13
2023-02-20T11:48:10.864Z,3.17
2023-02-20T11:53:36.650Z,2.92
2023-02-20T11:59:26.630Z,3.13
2023-02-20T12:05:07.316Z,2.67
2023-02-20T12:10:43.739Z,2.70
2023-02-20T12:16:33.973Z,2.70
2023-02-20T12:22:05.788Z,2.72
2023-02-20T12:27:47.875Z,2.95
2023-02-20T12:33:27.506Z,3.60
2023-02-20T12:38:57.952Z,3.30
2023-02-20T12:44:36.810Z,2.80
2023-02-20T12:50:29.652Z,2.67
2023-02-20T12:56:03.904Z,3.35
2023-02-20T13:01:39.200Z,2.78
2023-02-20T13:07:09.878Z,2.50
2023-02-20T13:12:33.813Z,2.47
2023-02-20T13:18:06.722Z,2.40
2023-02-20T13:23:35.947Z,2.40
2023-02-20T13:29:13.857Z,2.03
2023-02-20T13:34:40.663Z,1.90
2023-02-20T13:40:37.257Z,1.67
2023-02-20T13:46:22.623Z,1.70
2023-02-20T13:51:47.809Z,2.00
2023-02-20T13:57:18.580Z,2.08
2023-02-20T14:02:42.832Z,1.70
2023-02-20T14:08:08.211Z,1.63
2023-02-20T14:13:40.065Z,1.90
2023-02-20T14:19:09.207Z,1.70
2023-02-20T14:24:34.336Z,1.30
2023-02-20T14:30:10.866Z,1.42
2023-02-20T14:35:44.299Z,1.50
2023-02-20T14:41:20.654Z,1.60
2023-02-20T14:46:44.431Z,1.45
2023-02-20T14:52:17.311Z,1.75
2023-02-20T14:57:42.527Z,3.22
2023-02-20T15:03:28.089Z,3.50
2023-02-20T15:08:57.974Z,3.20
2023-02-20T15:14:26.624Z,2.92
2023-02-20T15:19:52.277Z,2.88
2023-02-20T15:25:34.071Z,2.20
2023-02-20T15:31:25.117Z,2.00
2023-02-20T15:36:49.769Z,1.55
2023-02-20T15:42:13.527Z,1.92
2023-02-20T15:47:40.279Z,2.33
2023-02-20T15:53:04.628Z,2.50
2023-02-20T15:58:34.267Z,3.67
2023-02-20T16:04:01.524Z,4.20
2023-02-20T16:09:25.414Z,5.15
2023-02-20T16:14:53.706Z,4.80
2023-02-20T16:20:22.149Z,5.38
2023-02-20T16:25:46.367Z,5.97
2023-02-20T16:31:11.495Z,6.03
2023-02-20T16:36:36.724Z,5.80
2023-02-20T16:42:00.636Z,6.57
2023-02-20T16:47:29.094Z,5.57
2023-02-20T16:52:55.379Z,5.35
2023-02-20T16:58:20.286Z,14.07
2023-02-20T17:03:44.185Z,10.57
2023-02-20T17:09:09.327Z,6.93
2023-02-20T17:14:33.204Z,5.78
2023-02-20T17:19:57.176Z,5.40
2023-02-20T17:25:24.386Z,4.95
2023-02-20T17:30:53.082Z,5.00
2023-02-20T17:36:16.921Z,5.70
2023-02-20T17:41:42.243Z,7.95
2023-02-20T17:47:09.423Z,6.65
2023-02-20T17:52:33.364Z,8.77
2023-02-20T17:57:58.501Z,8.23
2023-02-20T18:03:22.298Z,7.50
2023-02-20T18:08:48.881Z,7.53
2023-02-20T18:14:15.006Z,6.55
2023-02-20T18:19:38.862Z,5.45
2023-02-20T18:25:02.687Z,5.63
2023-02-20T18:30:28.124Z,4.50
2023-02-20T18:36:07.290Z,5.68
2023-02-20T18:41:31.790Z,6.28
2023-02-20T18:46:57.538Z,6.88
2023-02-20T18:52:23.334Z,8.35
2023-02-20T18:57:48.063Z,4.50
2023-02-20T19:03:13.255Z,7.03
2023-02-20T19:08:37.036Z,5.90
2023-02-20T19:14:01.371Z,6.38
2023-02-20T19:19:28.255Z,6.82
2023-02-20T19:24:52.093Z,7.07
2023-02-20T19:30:16.678Z,8.00
2023-02-20T19:35:41.881Z,7.30
2023-02-20T19:41:05.988Z,7.53
2023-02-20T19:46:29.767Z,7.10
2023-02-20T19:51:55.951Z,7.47
2023-02-20T19:57:19.789Z,7.85
2023-02-20T20:02:43.627Z,6.80
2023-02-20T20:08:08.826Z,8.77
2023-02-20T20:13:32.632Z,6.93
2023-02-20T20:18:56.573Z,7.22
2023-02-20T20:24:21.734Z,7.72
2023-02-20T20:29:46.755Z,8.60
2023-02-20T20:35:10.685Z,7.43
2023-02-20T20:40:35.972Z,9.05
2023-02-20T20:46:00.848Z,9.18
2023-02-20T20:51:24.993Z,8.13
2023-02-20T20:56:51.597Z,8.65
2023-02-20T21:02:15.440Z,9.60
2023-02-20T21:07:39.543Z,8.18
2023-02-20T21:13:05.337Z,8.48
2023-02-20T21:18:29.264Z,8.75
2023-02-20T21:23:53.077Z,10.32
2023-02-20T21:29:18.664Z,11.88
2023-02-20T21:34:42.546Z,10.95
2023-02-20T21:40:06.875Z,10.02
2023-02-20T21:45:32.152Z,10.55
2023-02-20T21:50:55.920Z,11.30
2023-02-20T21:56:19.677Z,10.90
2023-02-20T22:01:44.083Z,9.93
2023-02-20T22:07:25.238Z,10.63
2023-02-20T22:13:06.535Z,10.83
2023-02-20T22:18:49.253Z,11.90
2023-02-20T22:24:38.232Z,12.20
2023-02-20T22:30:19.970Z,10.82
2023-02-20T22:36:02.938Z,11.30
2023-02-20T22:41:44.384Z,9.10
2023-02-20T22:47:25.573Z,8.27
2023-02-20T22:53:10.014Z,10.90
2023-02-20T22:58:51.427Z,11.73
2023-02-20T23:04:32.688Z,11.43
2023-02-20T23:10:15.254Z,11.23
2023-02-20T23:15:56.520Z,12.75
2023-02-20T23:21:37.560Z,11.90
2023-02-20T23:27:20.327Z,14.05
2023-02-20T23:33:01.740Z,11.45
2023-02-20T23:38:43.284Z,11.57
2023-02-20T23:44:26.303Z,12.90
2023-02-20T23:50:07.712Z,11.80
2023-02-20T23:55:49.042Z,11.40
